createdAt,value
2017-07-28T00:00:08.367Z,91.60
2017-07-28T00:02:41.953Z,91.60
2017-07-28T00:05:15.859Z,91.80
2017-07-28T00:07:50.146Z,91.60
2017-07-28T00:10:23.844Z,91.50
2017-07-28T00:12:58.379Z,92.10
2017-07-28T00:15:32.102Z,92.00
2017-07-28T00:18:05.670Z,91.60
2017-07-28T00:20:39.291Z,92.10
2017-07-28T00:23:13.587Z,91.80
2017-07-28T00:25:47.339Z,91.70
2017-07-28T00:28:20.902Z,91.80
2017-07-28T00:30:54.534Z,92.10
2017-07-28T00:33:28.152Z,91.50
2017-07-28T00:36:01.712Z,91.60
2017-07-28T00:38:35.318Z,91.90
2017-07-28T00:41:09.096Z,91.90
2017-07-28T00:43:42.626Z,92.00
2017-07-28T00:46:16.127Z,92.10
2017-07-28T00:48:50.487Z,92.00
2017-07-28T00:51:24.238Z,92.00
2017-07-28T00:53:58.524Z,92.20
2017-07-28T00:56:33.055Z,91.50
2017-07-28T00:59:07.363Z,91.90
2017-07-28T01:01:41.875Z,92.40
2017-07-28T01:04:16.424Z,92.10
2017-07-28T01:06:50.188Z,92.10
2017-07-28T01:09:23.744Z,92.10
2017-07-28T01:11:58.318Z,91.80
2017-07-28T01:14:32.076Z,91.70
2017-07-28T01:17:06.663Z,92.30
2017-07-28T01:19:41.211Z,92.50
2017-07-28T01:22:15.224Z,92.50
2017-07-28T01:24:50.000Z,93.90
2017-07-28T01:27:23.623Z,93.40
2017-07-28T01:29:57.180Z,93.60
2017-07-28T01:32:30.920Z,93.10
2017-07-28T01:35:04.613Z,93.20
2017-07-28T01:37:38.225Z,92.80
2017-07-28T01:40:12.015Z,92.80
2017-07-28T01:42:45.656Z,93.00
2017-07-28T01:45:19.240Z,92.90
2017-07-28T01:47:52.872Z,92.90
2017-07-28T01:50:26.411Z,93.20
2017-07-28T01:53:00.055Z,93.30
2017-07-28T01:55:33.636Z,93.30
2017-07-28T01:58:07.447Z,93.30
2017-07-28T02:00:40.986Z,93.60
2017-07-28T02:03:14.568Z,93.40
2017-07-28T02:05:48.112Z,93.40
2017-07-28T02:08:21.659Z,93.40
2017-07-28T02:10:55.163Z,93.40
2017-07-28T02:13:28.939Z,93.30
2017-07-28T02:16:02.595Z,93.20
2017-07-28T02:18:36.147Z,91.50
2017-07-28T02:21:09.750Z,91.30
2017-07-28T02:23:43.320Z,91.40
2017-07-28T02:26:16.916Z,91.60
2017-07-28T02:28:50.542Z,91.50
2017-07-28T02:31:24.140Z,91.70
2017-07-28T02:33:57.746Z,91.70
2017-07-28T02:36:31.347Z,91.70
2017-07-28T02:39:04.932Z,91.30
2017-07-28T02:41:38.414Z,91.50
2017-07-28T02:44:12.036Z,91.30
2017-07-28T02:46:45.629Z,91.40
2017-07-28T02:49:19.214Z,91.40
2017-07-28T02:51:52.803Z,91.20
2017-07-28T02:54:26.444Z,91.40
2017-07-28T02:57:00.052Z,91.60
2017-07-28T02:59:33.611Z,91.40
2017-07-28T03:02:07.945Z,91.70
2017-07-28T03:04:41.767Z,91.70
2017-07-28T03:07:15.492Z,92.00
2017-07-28T03:09:49.102Z,91.90
2017-07-28T03:12:22.668Z,91.90
2017-07-28T03:14:56.331Z,91.80
2017-07-28T03:17:29.880Z,91.70
2017-07-28T03:20:03.465Z,91.50
2017-07-28T03:22:37.070Z,91.50
2017-07-28T03:25:10.694Z,91.60
2017-07-28T03:27:44.396Z,91.60
2017-07-28T03:30:18.012Z,91.60
2017-07-28T03:32:51.759Z,91.50
2017-07-28T03:35:26.213Z,91.30
2017-07-28T03:37:59.915Z,91.30
2017-07-28T03:40:33.484Z,91.20
2017-07-28T03:43:07.231Z,91.40
2017-07-28T03:45:40.756Z,91.40
2017-07-28T03:48:14.395Z,91.20
2017-07-28T03:50:48.213Z,91.20
2017-07-28T03:53:21.880Z,91.10
2017-07-28T03:55:56.229Z,91.40
2017-07-28T03:58:29.915Z,91.30
2017-07-28T04:01:03.512Z,91.50
2017-07-28T04:03:37.155Z,91.40
2017-07-28T04:06:10.747Z,91.40
2017-07-28T04:08:44.333Z,91.20
2017-07-28T04:11:17.916Z,91.40
2017-07-28T04:13:51.543Z,91.20
2017-07-28T04:16:25.115Z,91.30
2017-07-28T04:18:58.611Z,91.30
2017-07-28T04:21:32.218Z,91.10
2017-07-28T04:24:05.859Z,91.60
2017-07-28T04:26:40.457Z,91.90
2017-07-28T04:29:14.183Z,91.90
2017-07-28T04:31:47.740Z,91.60
2017-07-28T04:34:21.292Z,91.60
2017-07-28T04:36:54.828Z,91.40
2017-07-28T04:39:28.717Z,91.50
2017-07-28T04:42:02.290Z,91.90
2017-07-28T04:44:35.929Z,91.70
2017-07-28T04:47:09.644Z,91.90
2017-07-28T04:49:43.229Z,91.80
2017-07-28T04:52:16.799Z,92.20
2017-07-28T04:54:50.387Z,91.70
2017-07-28T04:57:23.949Z,92.10
2017-07-28T04:59:57.476Z,92.00
2017-07-28T05:02:31.051Z,91.90
2017-07-28T05:05:04.576Z,91.60
2017-07-28T05:07:38.160Z,92.00
2017-07-28T05:10:11.672Z,92.00
2017-07-28T05:12:45.164Z,92.00
2017-07-28T05:15:18.695Z,92.10
2017-07-28T05:17:52.274Z,92.20
2017-07-28T05:20:26.564Z,92.70
2017-07-28T05:23:00.199Z,92.40
2017-07-28T05:25:34.727Z,92.70
2017-07-28T05:28:08.308Z,92.60
2017-07-28T05:30:41.860Z,92.60
2017-07-28T05:33:15.395Z,92.20
2017-07-28T05:35:49.735Z,92.70
2017-07-28T05:38:23.460Z,92.70
2017-07-28T05:40:57.011Z,92.60
2017-07-28T05:43:31.356Z,92.20
2017-07-28T05:46:04.935Z,92.10
2017-07-28T05:48:38.463Z,91.90
2017-07-28T05:51:12.736Z,92.20
2017-07-28T05:53:46.416Z,92.20
2017-07-28T05:56:19.930Z,92.60
2017-07-28T05:58:53.551Z,92.50
2017-07-28T06:01:27.135Z,92.20
2017-07-28T06:04:00.659Z,92.20
2017-07-28T06:06:34.276Z,92.00
2017-07-28T06:09:07.884Z,92.50
2017-07-28T06:11:41.400Z,92.50
2017-07-28T06:14:14.945Z,92.80
2017-07-28T06:16:48.548Z,92.90
2017-07-28T06:19:22.285Z,92.80
2017-07-28T06:21:55.848Z,92.50
2017-07-28T06:24:29.411Z,93.00
2017-07-28T06:27:03.064Z,93.60
2017-07-28T06:29:36.672Z,93.60
2017-07-28T06:32:10.276Z,93.20
2017-07-28T06:34:43.828Z,93.00
2017-07-28T06:37:18.328Z,93.20
2017-07-28T06:39:51.983Z,93.20
2017-07-28T06:42:25.677Z,92.80
2017-07-28T06:44:59.320Z,92.40
2017-07-28T06:47:32.899Z,92.10
2017-07-28T06:50:06.556Z,92.90
2017-07-28T06:52:40.215Z,92.30
2017-07-28T06:55:13.802Z,91.60
2017-07-28T06:57:47.560Z,91.60
2017-07-28T07:00:21.184Z,91.20
2017-07-28T07:02:54.775Z,91.30
2017-07-28T07:05:28.384Z,91.50
2017-07-28T07:08:02.020Z,91.60
2017-07-28T07:10:35.559Z,91.80
2017-07-28T07:13:09.219Z,92.00
2017-07-28T07:15:42.771Z,91.20
2017-07-28T07:18:16.414Z,92.00
2017-07-28T07:20:49.985Z,92.20
2017-07-28T07:23:24.315Z,91.70
2017-07-28T07:25:57.917Z,91.60
2017-07-28T07:28:31.512Z,92.30
2017-07-28T07:31:05.028Z,92.30
2017-07-28T07:33:38.700Z,92.30
2017-07-28T07:36:12.431Z,92.70
2017-07-28T07:38:46.120Z,92.90
2017-07-28T07:41:19.705Z,93.00
2017-07-28T07:43:53.184Z,93.70
2017-07-28T07:46:27.542Z,94.00
2017-07-28T07:49:01.960Z,93.70
2017-07-28T07:51:35.955Z,93.70
2017-07-28T07:54:10.297Z,93.70
2017-07-28T07:56:43.949Z,93.70
2017-07-28T07:59:17.560Z,93.80
2017-07-28T08:01:51.135Z,93.50
2017-07-28T08:04:24.800Z,93.90
2017-07-28T08:06:58.408Z,93.80
2017-07-28T08:09:31.959Z,93.80
2017-07-28T08:12:05.463Z,92.80
2017-07-28T08:14:39.096Z,93.10
2017-07-28T08:17:12.571Z,92.90
2017-07-28T08:19:46.216Z,92.30
2017-07-28T08:22:19.888Z,92.00
2017-07-28T08:24:53.447Z,92.10
2017-07-28T08:27:26.975Z,92.00
2017-07-28T08:30:00.573Z,92.50
2017-07-28T08:32:34.191Z,92.20
2017-07-28T08:35:07.694Z,92.10
2017-07-28T08:37:41.272Z,92.00
2017-07-28T08:40:14.860Z,91.80
2017-07-28T08:42:48.473Z,92.00
2017-07-28T08:45:22.789Z,92.30
2017-07-28T08:47:56.504Z,92.30
2017-07-28T08:50:30.066Z,92.60
2017-07-28T08:53:04.513Z,92.80
2017-07-28T08:55:38.232Z,92.80
2017-07-28T08:58:11.826Z,92.80
2017-07-28T09:00:45.340Z,93.00
2017-07-28T09:03:19.651Z,92.80
2017-07-28T09:05:53.339Z,92.70
2017-07-28T09:08:26.947Z,92.90
2017-07-28T09:11:01.252Z,92.20
2017-07-28T09:13:35.688Z,92.60
2017-07-28T09:16:09.296Z,92.70
2017-07-28T09:18:42.959Z,92.70
2017-07-28T09:21:16.596Z,92.50
2017-07-28T09:23:50.170Z,92.30
2017-07-28T09:26:23.684Z,92.40
2017-07-28T09:28:57.235Z,92.40
2017-07-28T09:31:30.747Z,92.20
2017-07-28T09:34:04.418Z,92.40
2017-07-28T09:36:38.209Z,92.10
2017-07-28T09:39:11.788Z,92.30
2017-07-28T09:41:45.335Z,92.40
2017-07-28T09:44:18.989Z,92.50
2017-07-28T09:46:52.797Z,92.30
2017-07-28T09:49:26.400Z,92.90
2017-07-28T09:51:59.903Z,92.50
2017-07-28T09:54:33.499Z,92.80
2017-07-28T09:57:07.083Z,93.00
2017-07-28T09:59:40.696Z,93.20
2017-07-28T10:02:15.292Z,93.40
2017-07-28T10:04:49.052Z,93.30
2017-07-28T10:07:22.605Z,93.30
2017-07-28T10:09:56.947Z,93.60
2017-07-28T10:12:30.526Z,93.60
2017-07-28T10:15:04.129Z,93.60
2017-07-28T10:17:37.859Z,93.50
2017-07-28T10:20:12.272Z,93.10
2017-07-28T10:22:45.983Z,93.10
2017-07-28T10:25:19.566Z,93.20
2017-07-28T10:27:54.056Z,93.20
2017-07-28T10:30:27.882Z,93.20
2017-07-28T10:33:01.396Z,93.20
2017-07-28T10:35:35.038Z,92.90
2017-07-28T10:38:08.835Z,92.80
2017-07-28T10:40:42.425Z,92.60
2017-07-28T10:43:16.011Z,92.90
2017-07-28T10:45:49.559Z,93.10
2017-07-28T10:48:23.112Z,92.80
2017-07-28T10:50:56.663Z,92.60
2017-07-28T10:53:30.236Z,93.20
2017-07-28T10:56:04.599Z,93.00
2017-07-28T10:58:38.302Z,92.90
2017-07-28T11:01:12.209Z,91.90
2017-07-28T11:03:46.549Z,92.40
2017-07-28T11:06:20.259Z,92.40
2017-07-28T11:08:53.844Z,92.90
2017-07-28T11:11:27.355Z,92.70
2017-07-28T11:14:00.856Z,92.40
2017-07-28T11:16:34.387Z,92.70
2017-07-28T11:19:07.932Z,92.30
2017-07-28T11:21:41.524Z,92.50
2017-07-28T11:24:15.096Z,92.70
2017-07-28T11:26:48.628Z,92.50
2017-07-28T11:29:22.243Z,92.60
2017-07-28T11:31:55.821Z,92.50
2017-07-28T11:34:29.423Z,92.50
2017-07-28T11:37:03.044Z,92.10
2017-07-28T11:39:36.668Z,92.00
2017-07-28T11:42:10.203Z,91.60
2017-07-28T11:44:43.760Z,91.80
2017-07-28T11:47:17.311Z,91.70
2017-07-28T11:49:50.868Z,91.90
2017-07-28T11:52:24.404Z,92.30
2017-07-28T11:54:57.968Z,92.60
2017-07-28T11:57:31.611Z,92.00
2017-07-28T12:00:05.226Z,92.50
2017-07-28T12:02:39.025Z,91.90
2017-07-28T12:05:12.621Z,93.00
2017-07-28T12:07:46.328Z,92.80
2017-07-28T12:10:19.919Z,92.10
2017-07-28T12:12:53.515Z,93.20
2017-07-28T12:15:27.052Z,93.30
2017-07-28T12:18:00.630Z,92.50
2017-07-28T12:20:34.201Z,91.60
2017-07-28T12:23:07.725Z,90.90
2017-07-28T12:25:41.348Z,91.20
2017-07-28T12:28:14.908Z,91.40
2017-07-28T12:30:48.570Z,91.40
2017-07-28T12:33:22.056Z,91.00
2017-07-28T12:35:55.659Z,91.80
2017-07-28T12:38:29.209Z,91.90
2017-07-28T12:41:02.769Z,91.90
2017-07-28T12:43:36.476Z,91.70
2017-07-28T12:46:10.157Z,91.00
2017-07-28T12:48:43.717Z,91.40
2017-07-28T12:51:17.489Z,91.10
2017-07-28T12:53:51.136Z,91.00
2017-07-28T12:56:24.892Z,90.20
2017-07-28T12:58:58.540Z,90.90
2017-07-28T13:01:32.377Z,90.50
2017-07-28T13:04:06.056Z,90.80
2017-07-28T13:06:39.653Z,91.40
2017-07-28T13:09:13.264Z,90.50
2017-07-28T13:11:46.866Z,90.70
2017-07-28T13:14:20.407Z,90.40
2017-07-28T13:16:54.059Z,90.70
2017-07-28T13:19:27.648Z,90.90
2017-07-28T13:22:01.265Z,90.00
2017-07-28T13:24:34.828Z,90.50
2017-07-28T13:27:08.476Z,90.20
2017-07-28T13:29:42.768Z,90.70
2017-07-28T13:32:16.411Z,90.60
2017-07-28T13:34:49.949Z,89.60
2017-07-28T13:37:23.592Z,90.20
2017-07-28T13:39:57.179Z,89.00
2017-07-28T13:42:30.776Z,90.00
2017-07-28T13:45:04.345Z,90.00
2017-07-28T13:47:38.712Z,88.20
2017-07-28T13:50:12.423Z,88.20
2017-07-28T13:52:46.002Z,86.80
2017-07-28T13:55:20.310Z,86.60
2017-07-28T13:57:54.140Z,86.60
2017-07-28T14:00:27.692Z,87.20
2017-07-28T14:03:01.239Z,87.60
2017-07-28T14:05:34.805Z,87.00
2017-07-28T14:08:08.347Z,85.50
2017-07-28T14:10:41.912Z,85.50
2017-07-28T14:13:15.451Z,87.00
2017-07-28T14:15:49.072Z,87.40
2017-07-28T14:18:22.620Z,87.90
2017-07-28T14:20:56.636Z,89.00
2017-07-28T14:23:31.111Z,88.30
2017-07-28T14:26:05.561Z,86.80
2017-07-28T14:28:39.154Z,86.70
2017-07-28T14:31:12.739Z,89.80
2017-07-28T14:33:46.406Z,90.20
2017-07-28T14:36:19.932Z,87.80
2017-07-28T14:38:53.576Z,89.10
2017-07-28T14:41:27.143Z,88.70
2017-07-28T14:44:00.706Z,87.40
2017-07-28T14:46:34.267Z,88.20
2017-07-28T14:49:10.317Z,88.90
2017-07-28T14:51:44.827Z,87.60
2017-07-28T14:54:18.567Z,87.60
2017-07-28T14:56:52.175Z,87.90
2017-07-28T14:59:25.836Z,87.90
2017-07-28T15:01:59.504Z,87.30
2017-07-28T15:04:33.866Z,86.20
2017-07-28T15:07:07.486Z,86.20
2017-07-28T15:09:41.079Z,86.20
2017-07-28T15:12:14.665Z,87.80
2017-07-28T15:14:48.257Z,87.30
2017-07-28T15:17:21.909Z,86.60
2017-07-28T15:19:55.436Z,87.50
2017-07-28T15:22:29.203Z,88.70
2017-07-28T15:25:02.732Z,88.30
2017-07-28T15:27:36.296Z,86.30
2017-07-28T15:30:09.855Z,84.40
2017-07-28T15:32:44.199Z,85.20
2017-07-28T15:35:17.878Z,85.10
2017-07-28T15:37:51.406Z,85.10
2017-07-28T15:40:24.990Z,85.80
2017-07-28T15:42:58.581Z,85.70
2017-07-28T15:45:32.162Z,85.80
2017-07-28T15:48:05.912Z,84.90
2017-07-28T15:50:39.463Z,82.90
2017-07-28T15:53:13.052Z,84.90
2017-07-28T15:55:47.595Z,84.30
2017-07-28T15:58:21.335Z,84.30
2017-07-28T16:00:55.145Z,83.40
2017-07-28T16:03:28.720Z,82.90
2017-07-28T16:06:02.322Z,84.00
2017-07-28T16:08:35.912Z,84.80
2017-07-28T16:11:09.523Z,85.30
2017-07-28T16:13:43.028Z,84.50
2017-07-28T16:16:17.359Z,84.80
2017-07-28T16:18:51.150Z,84.70
2017-07-28T16:21:24.685Z,85.00
2017-07-28T16:23:58.436Z,84.90
2017-07-28T16:26:31.980Z,86.50
2017-07-28T16:29:05.503Z,86.00
2017-07-28T16:31:39.102Z,85.90
2017-07-28T16:34:12.860Z,85.60
2017-07-28T16:36:46.467Z,85.60
2017-07-28T16:39:20.067Z,84.30
2017-07-28T16:41:53.644Z,84.30
2017-07-28T16:44:27.256Z,83.70
2017-07-28T16:47:01.583Z,84.60
2017-07-28T16:49:35.284Z,84.50
2017-07-28T16:52:09.008Z,82.90
2017-07-28T16:54:42.583Z,80.70
2017-07-28T16:57:16.363Z,82.70
2017-07-28T16:59:49.947Z,82.10
2017-07-28T17:02:23.483Z,82.50
2017-07-28T17:04:57.055Z,81.20
2017-07-28T17:07:30.671Z,81.60
2017-07-28T17:10:04.206Z,81.70
2017-07-28T17:12:37.799Z,80.00
2017-07-28T17:15:12.067Z,79.40
2017-07-28T17:17:45.774Z,79.40
2017-07-28T17:20:19.362Z,77.80
2017-07-28T17:22:53.032Z,77.70
2017-07-28T17:25:26.694Z,78.80
2017-07-28T17:28:00.251Z,78.10
2017-07-28T17:30:33.778Z,78.80
2017-07-28T17:33:08.129Z,78.30
2017-07-28T17:35:41.691Z,78.20
2017-07-28T17:38:15.334Z,80.50
2017-07-28T17:40:52.760Z,80.30
2017-07-28T17:43:26.347Z,80.50
2017-07-28T17:45:59.882Z,80.30
2017-07-28T17:48:33.508Z,79.40
2017-07-28T17:51:07.291Z,80.90
2017-07-28T17:53:40.939Z,79.90
2017-07-28T17:56:14.504Z,79.00
2017-07-28T17:58:48.852Z,80.50
2017-07-28T18:01:22.518Z,80.50
2017-07-28T18:03:56.163Z,79.30
2017-07-28T18:06:29.748Z,80.00
2017-07-28T18:09:03.368Z,81.30
2017-07-28T18:11:37.288Z,80.90
2017-07-28T18:14:10.952Z,81.70
2017-07-28T18:16:44.641Z,82.00
2017-07-28T18:19:18.196Z,82.90
2017-07-28T18:21:51.825Z,83.30
2017-07-28T18:24:25.408Z,83.30
2017-07-28T18:26:59.001Z,84.00
2017-07-28T18:29:32.571Z,83.80
2017-07-28T18:32:06.149Z,83.80
2017-07-28T18:34:39.638Z,83.80
2017-07-28T18:37:13.280Z,83.10
2017-07-28T18:39:47.250Z,83.90
2017-07-28T18:42:20.921Z,84.30
2017-07-28T18:44:54.548Z,84.30
2017-07-28T18:47:28.944Z,84.80
2017-07-28T18:50:03.343Z,85.50
2017-07-28T18:52:37.872Z,85.90
2017-07-28T18:55:11.594Z,85.80
2017-07-28T18:57:45.140Z,86.10
2017-07-28T19:00:19.752Z,86.10
2017-07-28T19:02:53.433Z,86.00
2017-07-28T19:05:27.113Z,86.00
2017-07-28T19:08:01.684Z,85.90
2017-07-28T19:10:35.412Z,85.90
2017-07-28T19:13:09.044Z,86.30
2017-07-28T19:15:42.872Z,86.10
2017-07-28T19:18:16.596Z,86.50
2017-07-28T19:20:50.255Z,86.60
2017-07-28T19:23:23.948Z,86.40
2017-07-28T19:25:58.441Z,86.10
2017-07-28T19:28:32.203Z,86.10
2017-07-28T19:31:05.847Z,87.20
2017-07-28T19:33:39.514Z,87.00
2017-07-28T19:36:13.695Z,86.70
2017-07-28T19:38:47.403Z,86.90
2017-07-28T19:41:21.087Z,86.40
2017-07-28T19:43:54.540Z,87.00
2017-07-28T19:46:28.180Z,86.80
2017-07-28T19:51:59.439Z,87.80
2017-07-28T19:54:33.271Z,87.60
2017-07-28T19:57:07.826Z,87.10
2017-07-28T19:59:41.479Z,87.00
2017-07-28T20:02:15.891Z,86.70
2017-07-28T20:04:49.658Z,87.20
2017-07-28T20:07:23.246Z,86.80
2017-07-28T20:09:57.863Z,86.70
2017-07-28T20:12:31.629Z,86.00
2017-07-28T20:15:05.420Z,86.40
2017-07-28T20:17:39.097Z,86.10
2017-07-28T20:20:12.719Z,86.40
2017-07-28T20:22:46.341Z,86.20
2017-07-28T20:25:21.053Z,86.20
2017-07-28T20:27:54.668Z,86.40
2017-07-28T20:30:28.492Z,86.40
2017-07-28T20:33:02.249Z,85.90
2017-07-28T20:35:35.790Z,86.80
2017-07-28T20:38:10.147Z,87.20
2017-07-28T20:40:43.898Z,86.40
2017-07-28T20:43:17.557Z,86.10
2017-07-28T20:45:51.170Z,86.10
2017-07-28T20:48:24.759Z,85.70
2017-07-28T20:50:58.316Z,86.50
2017-07-28T20:53:32.947Z,86.30
2017-07-28T20:56:06.593Z,86.30
2017-07-28T20:58:40.757Z,86.10
2017-07-28T21:01:14.464Z,85.90
2017-07-28T21:03:48.102Z,86.00
2017-07-28T21:06:21.714Z,86.00
2017-07-28T21:08:55.301Z,86.00
2017-07-28T21:11:28.975Z,86.40
2017-07-28T21:14:14.455Z,86.10
2017-07-28T21:16:48.019Z,85.90
2017-07-28T21:19:21.644Z,85.90
2017-07-28T21:21:55.395Z,85.40
2017-07-28T21:24:29.264Z,85.20
2017-07-28T21:27:02.903Z,85.30
2017-07-28T21:29:36.521Z,85.10
2017-07-28T21:32:12.199Z,86.00
2017-07-28T21:34:46.149Z,85.00
2017-07-28T21:37:20.671Z,85.00
2017-07-28T21:39:54.309Z,85.00
2017-07-28T21:42:28.009Z,84.90
2017-07-28T21:45:02.609Z,85.40
2017-07-28T21:47:36.319Z,85.30
2017-07-28T21:50:09.909Z,85.20
2017-07-28T21:52:43.751Z,84.70
2017-07-28T21:55:17.318Z,84.30
2017-07-28T21:57:51.360Z,84.60
2017-07-28T22:00:25.025Z,84.40
2017-07-28T22:02:58.652Z,84.40
2017-07-28T22:05:32.356Z,84.30
2017-07-28T22:08:06.020Z,84.30
2017-07-28T22:10:39.866Z,84.40
2017-07-28T22:13:18.197Z,84.50
2017-07-28T22:15:51.918Z,85.00
2017-07-28T22:18:26.438Z,84.90
2017-07-28T22:21:00.532Z,84.90
2017-07-28T22:23:34.279Z,85.20
2017-07-28T22:26:07.931Z,84.90
2017-07-28T22:28:41.536Z,84.90
2017-07-28T22:31:15.074Z,85.00
2017-07-28T22:33:48.654Z,85.00
2017-07-28T22:36:22.177Z,84.70
2017-07-28T22:38:55.760Z,84.40
2017-07-28T22:41:29.356Z,85.00
2017-07-28T22:44:02.918Z,85.20
2017-07-28T22:46:36.652Z,85.30
2017-07-28T22:49:10.500Z,85.70
2017-07-28T22:51:44.114Z,85.70
2017-07-28T22:54:17.845Z,86.60
2017-07-28T22:56:51.447Z,86.20
2017-07-28T22:59:25.081Z,86.10
2017-07-28T23:01:58.673Z,85.80
2017-07-28T23:04:32.289Z,85.60
2017-07-28T23:07:05.915Z,85.70
2017-07-28T23:09:39.479Z,85.90
2017-07-28T23:12:13.785Z,86.10
2017-07-28T23:14:47.330Z,86.10
2017-07-28T23:17:20.909Z,86.20
2017-07-28T23:19:54.502Z,86.30
2017-07-28T23:22:28.388Z,86.30
2017-07-28T23:25:03.584Z,86.60
2017-07-28T23:27:38.087Z,86.70
2017-07-28T23:30:11.786Z,86.70
2017-07-28T23:32:45.672Z,86.80
2017-07-28T23:35:19.386Z,87.10
2017-07-28T23:37:52.934Z,87.80
2017-07-28T23:40:26.535Z,88.40
2017-07-28T23:43:00.339Z,87.80
2017-07-28T23:45:33.970Z,87.30
2017-07-28T23:48:07.621Z,87.40
2017-07-28T23:50:43.051Z,88.30
2017-07-28T23:53:16.726Z,87.80
2017-07-28T23:55:50.537Z,88.30
2017-07-28T23:58:24.526Z,88.00
